Time;durP1;ratioP1;P1;durP2;ratioP2;P2;SDS_P1;SDS_P2;PMS_P1;PMS_P2;Temp;Humidity;BMP_temperature;BMP_pressure;BME280_temperature;BME280_humidity;BME280_pressure;Samples;Min_cycle;Max_cycle;Signal;HPM_P1;HPM_P2
2021/01/31 00:02:30;;;;;;;168.75;64.67;;;;;;;-4.90;68.20;99267.51;2193650;80;28252;-71
2021/01/31 00:05:32;;;;;;;161.03;61.30;;;;;;;-4.93;68.10;99275.77;2155480;81;28867;-66
2021/01/31 00:08:34;;;;;;;169.82;62.55;;;;;;;-4.98;67.98;99269.72;2156991;81;31158;-72
2021/01/31 00:11:37;;;;;;;159.00;62.90;;;;;;;-5.04;67.81;99278.41;2183024;81;33604;-71
2021/01/31 00:14:39;;;;;;;159.75;62.40;;;;;;;-5.08;67.71;99279.31;2194978;81;29701;-64
2021/01/31 00:17:41;;;;;;;158.80;62.17;;;;;;;-5.14;67.61;99280.20;2195059;81;27667;-66
2021/01/31 00:20:46;;;;;;;161.45;64.75;;;;;;;-5.17;67.61;99276.70;2194940;80;28878;-66
2021/01/31 00:23:48;;;;;;;168.97;66.37;;;;;;;-5.23;67.71;99280.20;2195015;81;31363;-69
2021/01/31 00:26:51;;;;;;;169.07;64.20;;;;;;;-5.26;67.69;99284.13;2194847;81;34375;-75
2021/01/31 00:29:53;;;;;;;166.60;64.40;;;;;;;-5.32;67.55;99285.45;2194791;81;29254;-63
2021/01/31 00:32:55;;;;;;;165.92;65.97;;;;;;;-5.38;67.53;99282.42;2168051;81;27744;-72
2021/01/31 00:35:58;;;;;;;163.92;64.55;;;;;;;-5.42;67.45;99275.46;2156967;82;28818;-76
2021/01/31 00:39:02;;;;;;;177.15;68.35;;;;;;;-5.47;67.51;99269.37;2170115;79;31195;-72
2021/01/31 00:42:04;;;;;;;166.75;65.10;;;;;;;-5.48;67.45;99277.66;2246277;79;33108;-72
2021/01/31 00:45:11;;;;;;;159.87;62.15;;;;;;;-5.52;67.48;99274.61;2219686;79;29605;-72
2021/01/31 00:48:14;;;;;;;191.82;73.75;;;;;;;-5.56;67.51;99276.77;2219801;80;27589;-73
2021/01/31 00:51:16;;;;;;;176.65;66.42;;;;;;;-5.60;67.57;99269.39;2242688;79;28806;-76
2021/01/31 00:54:18;;;;;;;209.80;76.70;;;;;;;-5.65;67.56;99278.95;2252906;79;31648;-71
2021/01/31 00:57:20;;;;;;;195.28;73.30;;;;;;;-5.66;67.56;99282.43;2252944;79;33995;-66
2021/01/31 01:00:37;;;;;;;206.13;75.22;;;;;;;-5.68;67.46;99287.66;2251484;78;30093;-72
2021/01/31 01:03:38;;;;;;;195.87;75.20;;;;;;;-5.70;67.42;99287.20;2254471;78;27661;-66
2021/01/31 01:06:40;;;;;;;183.75;69.87;;;;;;;-5.71;67.57;99290.72;2253049;78;28804;-77
2021/01/31 01:09:42;;;;;;;195.72;71.80;;;;;;;-5.72;67.46;99288.52;2229142;79;32039;-71
2021/01/31 01:12:45;;;;;;;194.13;69.55;;;;;;;-5.73;67.38;99284.63;2212927;80;33092;-72
2021/01/31 01:15:47;;;;;;;186.55;67.58;;;;;;;-5.75;67.40;99286.36;2212167;80;30062;-69
2021/01/31 01:18:49;;;;;;;199.87;73.55;;;;;;;-5.78;67.31;99287.20;2191397;79;27577;-74
2021/01/31 01:21:51;;;;;;;189.85;68.10;;;;;;;-5.80;67.34;99285.91;2245117;79;27873;-66
2021/01/31 01:24:53;;;;;;;197.78;71.85;;;;;;;-5.83;67.29;99284.60;2252779;79;31161;-75
2021/01/31 01:27:56;;;;;;;199.97;72.97;;;;;;;-5.86;67.34;99290.26;2252955;79;32860;-77
2021/01/31 01:30:58;;;;;;;219.75;75.37;;;;;;;-5.88;67.41;99299.41;2252847;79;30120;-74
2021/01/31 01:34:00;;;;;;;194.43;72.75;;;;;;;-5.88;67.24;99291.58;2253396;79;27768;-68
2021/01/31 01:37:02;;;;;;;184.82;67.72;;;;;;;-5.88;67.32;99295.48;2230749;79;29731;-63
2021/01/31 01:40:07;;;;;;;218.65;82.10;;;;;;;-5.88;67.31;99303.73;2212977;80;32132;-74
2021/01/31 01:43:18;;;;;;;211.97;78.22;;;;;;;-5.88;67.26;99300.70;2247668;78;33113;-69
2021/01/31 01:46:28;;;;;;;205.85;77.85;;;;;;;-5.88;67.15;99297.20;2223502;80;30248;-73
2021/01/31 01:49:42;;;;;;;241.90;89.62;;;;;;;-5.89;67.25;99303.30;2266939;78;28362;-65
2021/01/31 01:52:44;;;;;;;241.10;88.65;;;;;;;-5.89;67.12;99296.77;2158374;82;29847;-69
2021/01/31 01:56:15;;;;;;;245.37;87.67;;;;;;;-5.93;67.26;99298.52;2192754;80;31229;-69
2021/01/31 01:59:17;;;;;;;234.95;89.77;;;;;;;-5.95;67.44;99298.50;2235163;79;34049;-74
2021/01/31 02:02:33;;;;;;;247.88;88.67;;;;;;;-5.97;67.44;99296.35;2223652;79;29166;-69
2021/01/31 02:05:36;;;;;;;280.60;101.33;;;;;;;-5.96;67.44;99298.51;2230355;79;27580;-66
2021/01/31 02:08:40;;;;;;;258.70;94.95;;;;;;;-5.97;67.57;99305.47;2186992;81;28817;-69
2021/01/31 02:11:42;;;;;;;279.52;100.35;;;;;;;-5.95;67.67;99305.47;2192503;79;31220;-70
2021/01/31 02:14:45;;;;;;;284.65;100.90;;;;;;;-5.96;67.68;99305.91;2182879;79;33120;-63
2021/01/31 02:18:01;;;;;;;278.85;102.25;;;;;;;-5.96;67.57;99301.12;2234997;79;29592;-68
2021/01/31 02:21:33;;;;;;;313.87;112.37;;;;;;;-5.97;67.49;99306.78;2218605;79;27632;-66
2021/01/31 02:25:11;;;;;;;347.58;124.27;;;;;;;-6.00;67.34;99309.41;2209480;78;29253;-75
2021/01/31 02:28:24;;;;;;;353.65;126.45;;;;;;;-6.03;67.27;99308.51;2194262;81;31825;-74
2021/01/31 02:32:01;;;;;;;323.55;119.70;;;;;;;-6.08;67.20;99308.51;2181130;79;34286;-72
2021/01/31 02:35:22;;;;;;;328.97;116.03;;;;;;;-6.08;67.21;99304.59;2342619;76;36729;-67
2021/01/31 02:38:35;;;;;;;318.17;116.50;;;;;;;-6.16;67.07;99311.55;2298493;77;27765;-71
2021/01/31 02:41:58;;;;;;;315.00;109.27;;;;;;;-6.20;66.96;99314.56;2293517;77;29319;-68
2021/01/31 02:45:16;;;;;;;312.25;110.20;;;;;;;-6.24;66.73;99315.45;2217258;80;32134;-74
2021/01/31 02:48:29;;;;;;;302.22;108.42;;;;;;;-6.30;66.69;99314.11;2217427;80;34563;-64
2021/01/31 02:51:38;;;;;;;282.30;98.12;;;;;;;-6.37;66.48;99315.84;2239764;78;28539;-61
2021/01/31 02:54:54;;;;;;;289.60;102.62;;;;;;;-6.43;66.55;99324.51;2178567;81;27739;-76
2021/01/31 02:58:14;;;;;;;291.57;105.15;;;;;;;-6.49;66.48;99321.88;2254056;78;27997;-73
2021/01/31 03:01:25;;;;;;;270.70;94.62;;;;;;;-6.54;66.38;99322.31;2245723;78;31140;-73
2021/01/31 03:04:32;;;;;;;280.90;95.67;;;;;;;-6.62;66.25;99334.00;2219536;80;35427;-67
2021/01/31 03:07:57;;;;;;;287.77;94.32;;;;;;;-6.68;66.24;99336.56;2219356;80;28895;-71
2021/01/31 03:11:10;;;;;;;270.42;94.58;;;;;;;-6.72;66.05;99338.30;2198334;80;27685;-68
2021/01/31 03:14:17;;;;;;;258.30;92.45;;;;;;;-6.78;66.26;99335.65;2208814;80;27996;-62
2021/01/31 03:17:33;;;;;;;284.13;93.65;;;;;;;-6.84;66.19;99343.41;2199696;80;31133;-67
2021/01/31 03:20:42;;;;;;;273.75;88.82;;;;;;;-6.89;66.09;99343.40;2185379;81;33107;-70
2021/01/31 03:23:51;;;;;;;297.90;99.75;;;;;;;-6.94;66.21;99350.30;2185644;81;29821;-67
2021/01/31 03:27:13;;;;;;;279.30;97.57;;;;;;;-6.95;66.29;99351.61;2185417;81;27826;-70
2021/01/31 03:30:16;;;;;;;236.22;84.07;;;;;;;-6.95;66.36;99355.52;2186838;80;29256;-64
2021/01/31 03:33:26;;;;;;;237.68;81.17;;;;;;;-6.95;66.66;99356.41;2216116;78;31133;-67
2021/01/31 03:36:29;;;;;;;221.28;78.72;;;;;;;-6.92;66.95;99352.48;2201022;79;34063;-74
2021/01/31 03:39:32;;;;;;;231.63;81.85;;;;;;;-6.88;67.01;99353.41;2156736;81;29106;-71
2021/01/31 03:42:35;;;;;;;239.75;88.75;;;;;;;-6.85;67.06;99361.20;2179553;81;27641;-73
2021/01/31 03:45:41;;;;;;;274.25;100.10;;;;;;;-6.83;67.11;99364.69;2179999;80;29858;-66
2021/01/31 03:49:00;;;;;;;270.60;98.52;;;;;;;-6.84;67.35;99367.30;2178907;81;31189;-73
2021/01/31 03:52:02;;;;;;;250.00;84.95;;;;;;;-6.81;67.58;99368.63;2179061;80;33104;-74
2021/01/31 03:55:06;;;;;;;242.25;81.85;;;;;;;-6.74;67.58;99369.08;2204413;80;29828;-69
2021/01/31 03:58:11;;;;;;;236.50;87.72;;;;;;;-6.75;67.67;99374.73;2216985;80;27753;-64
2021/01/31 04:01:13;;;;;;;255.95;91.00;;;;;;;-6.69;67.70;99380.81;2216694;80;28857;-74
2021/01/31 04:04:31;;;;;;;238.52;80.15;;;;;;;-6.66;67.84;99385.63;2205044;80;31138;-71
2021/01/31 04:07:38;;;;;;;234.37;80.40;;;;;;;-6.59;67.84;99387.39;2174934;80;34401;-74
2021/01/31 04:10:43;;;;;;;180.25;72.67;;;;;;;-6.53;67.97;99377.42;2176957;80;29868;-65
2021/01/31 04:13:46;;;;;;;209.75;78.65;;;;;;;-6.48;68.34;99381.38;2192093;80;28135;-73
2021/01/31 04:16:50;;;;;;;195.15;77.08;;;;;;;-6.41;68.27;99381.83;2191053;80;28941;-75
2021/01/31 04:19:52;;;;;;;166.37;68.87;;;;;;;-6.33;68.40;99380.14;2216511;80;30332;-72
2021/01/31 04:22:54;;;;;;;180.45;70.60;;;;;;;-6.23;68.68;99387.98;2214981;80;33119;-72
2021/01/31 04:25:56;;;;;;;190.53;77.42;;;;;;;-6.14;68.58;99378.45;2179109;81;29378;-64
2021/01/31 04:28:58;;;;;;;181.25;75.10;;;;;;;-6.04;68.94;99375.45;2198492;80;27645;-74
2021/01/31 04:32:00;;;;;;;186.18;76.40;;;;;;;-5.90;68.81;99375.87;2202081;80;29014;-71
2021/01/31 04:35:07;;;;;;;196.53;82.33;;;;;;;-5.79;68.78;99378.09;2195946;80;32035;-67
2021/01/31 04:38:09;;;;;;;179.78;78.12;;;;;;;-5.69;68.79;99382.45;2203554;80;33243;-70
2021/01/31 04:41:11;;;;;;;182.57;70.72;;;;;;;-5.63;68.56;99387.24;2233758;79;28836;-75
2021/01/31 04:44:18;;;;;;;161.45;66.70;;;;;;;-5.60;68.56;99377.67;2241538;79;27675;-73
2021/01/31 04:47:30;;;;;;;144.43;57.80;;;;;;;-5.56;68.58;99386.36;2243190;79;28882;-66
2021/01/31 04:50:37;;;;;;;147.80;62.78;;;;;;;-5.59;68.59;99373.31;2243121;79;31115;-63
2021/01/31 04:53:56;;;;;;;142.72;59.85;;;;;;;-5.48;68.87;99382.03;2236184;79;34357;-67
2021/01/31 04:57:14;;;;;;;142.95;56.83;;;;;;;-5.42;68.68;99387.69;2197685;80;29281;-73
2021/01/31 05:00:23;;;;;;;152.00;60.60;;;;;;;-5.42;68.67;99388.55;2203829;80;28157;-73
2021/01/31 05:03:25;;;;;;;140.57;56.30;;;;;;;-5.35;68.81;99386.38;2227400;79;29847;-65
2021/01/31 05:06:38;;;;;;;140.77;58.15;;;;;;;-5.28;68.78;99400.72;2203416;80;32584;-75
2021/01/31 05:09:40;;;;;;;147.05;59.98;;;;;;;-5.24;68.90;99397.25;2202299;79;33135;-72
2021/01/31 05:13:00;;;;;;;130.32;53.50;;;;;;;-5.15;69.07;99406.83;2227042;79;28860;-70
2021/01/31 05:16:12;;;;;;;135.50;53.98;;;;;;;-5.05;69.23;99409.88;2203194;80;27591;-73
2021/01/31 05:19:17;;;;;;;122.35;49.40;;;;;;;-4.96;69.19;99406.39;2203749;80;28847;-62
2021/01/31 05:22:24;;;;;;;116.00;49.42;;;;;;;-4.88;69.29;99407.23;2179476;80;31302;-70
2021/01/31 05:25:31;;;;;;;122.30;55.15;;;;;;;-4.86;69.13;99409.42;2201973;80;34719;-72
2021/01/31 05:28:35;;;;;;;127.17;49.60;;;;;;;-4.79;69.29;99406.36;2211100;79;28880;-74
2021/01/31 05:31:37;;;;;;;118.40;51.92;;;;;;;-4.76;69.09;99417.66;2232209;79;27687;-74
2021/01/31 05:34:49;;;;;;;125.78;49.45;;;;;;;-4.76;68.97;99417.66;2195059;80;30051;-73
2021/01/31 05:37:52;;;;;;;127.02;48.30;;;;;;;-4.79;68.86;99407.66;2208556;80;31218;-75
2021/01/31 05:40:53;;;;;;;117.17;51.00;;;;;;;-4.78;68.96;99422.47;2187107;80;33113;-67
2021/01/31 05:44:17;;;;;;;108.80;47.80;;;;;;;-4.75;69.01;99427.70;2186010;81;28865;-75
2021/01/31 05:47:25;;;;;;;118.77;50.12;;;;;;;-4.75;69.03;99429.86;2200814;80;27756;-74
2021/01/31 05:50:40;;;;;;;120.67;50.50;;;;;;;-4.71;69.04;99425.94;2224796;80;28874;-73
2021/01/31 05:53:42;;;;;;;106.22;40.12;;;;;;;-4.66;69.08;99420.28;2225170;80;31137;-74
2021/01/31 05:56:44;;;;;;;138.57;60.40;;;;;;;-4.63;69.05;99424.20;2214404;80;34179;-75
2021/01/31 05:59:46;;;;;;;141.80;59.77;;;;;;;-4.63;68.82;99419.83;2185974;81;28932;-76
2021/01/31 06:03:08;;;;;;;139.10;61.75;;;;;;;-4.65;68.65;99424.63;2196649;80;27674;-75
2021/01/31 06:06:18;;;;;;;146.77;61.00;;;;;;;-4.66;68.68;99429.42;2222085;80;28837;-75
2021/01/31 06:09:37;;;;;;;161.85;64.55;;;;;;;-4.67;68.65;99424.61;2185396;81;31144;-76
2021/01/31 06:12:39;;;;;;;167.45;65.15;;;;;;;-4.67;68.64;99434.22;2185942;81;33108;-74
2021/01/31 06:15:59;;;;;;;140.20;60.28;;;;;;;-4.71;68.59;99439.00;2155886;81;29316;-72
2021/01/31 06:19:09;;;;;;;147.93;61.83;;;;;;;-4.75;68.73;99445.98;2190994;80;27652;-73
2021/01/31 06:22:13;;;;;;;136.70;57.75;;;;;;;-4.75;68.66;99445.53;2224463;80;29784;-74
2021/01/31 06:25:29;;;;;;;134.47;55.73;;;;;;;-4.74;68.78;99448.58;2191880;80;32638;-73
2021/01/31 06:28:36;;;;;;;140.47;58.83;;;;;;;-4.76;68.73;99452.94;2208975;80;33350;-71
2021/01/31 06:32:04;;;;;;;159.20;59.13;;;;;;;-4.78;68.78;99451.20;2186429;80;29795;-75
2021/01/31 06:35:14;;;;;;;161.03;63.30;;;;;;;-4.77;68.92;99456.42;2188508;80;27891;-75
2021/01/31 06:38:33;;;;;;;200.05;68.75;;;;;;;-4.74;68.89;99459.03;2224912;80;28805;-75
2021/01/31 06:41:59;;;;;;;167.43;63.98;;;;;;;-4.73;68.83;99455.55;2224887;80;30760;-75
2021/01/31 06:45:15;;;;;;;187.57;65.17;;;;;;;-4.70;68.94;99463.81;2204009;80;33105;-75
2021/01/31 06:48:41;;;;;;;168.07;61.95;;;;;;;-4.68;68.75;99456.84;2206229;80;28858;-76
2021/01/31 06:52:03;;;;;;;140.18;53.52;;;;;;;-4.67;68.68;99460.34;2194681;80;27668;-66
2021/01/31 06:55:16;;;;;;;151.20;59.90;;;;;;;-4.69;68.61;99467.31;2185768;81;29784;-69
2021/01/31 06:58:26;;;;;;;154.65;61.58;;;;;;;-4.67;68.77;99478.19;2208333;80;32536;-76
2021/01/31 07:01:54;;;;;;;140.65;59.08;;;;;;;-4.64;68.85;99477.34;2222269;80;33157;-75
2021/01/31 07:05:26;;;;;;;148.22;58.02;;;;;;;-4.60;68.88;99484.27;2212906;80;28852;-72
2021/01/31 07:08:58;;;;;;;154.15;60.60;;;;;;;-4.55;68.92;99483.84;2186418;80;27607;-73
2021/01/31 07:12:22;;;;;;;152.93;63.52;;;;;;;-4.51;68.87;99488.20;2217999;80;28410;-74
2021/01/31 07:15:24;;;;;;;156.72;62.93;;;;;;;-4.46;68.91;99489.49;2224899;80;31275;-73
2021/01/31 07:18:28;;;;;;;159.22;66.28;;;;;;;-4.38;69.13;99498.17;2224786;80;33185;-73
2021/01/31 07:21:54;;;;;;;161.47;67.63;;;;;;;-4.33;69.08;99499.05;2224396;80;28863;-75
2021/01/31 07:25:07;;;;;;;147.07;62.35;;;;;;;-4.24;69.23;99498.61;2197516;81;28178;-74
2021/01/31 07:28:38;;;;;;;152.87;63.60;;;;;;;-4.09;69.26;99491.14;2315260;76;36804;-74
2021/01/31 07:31:48;;;;;;;137.95;58.45;;;;;;;-4.05;69.26;99492.42;2264793;77;27694;-75
2021/01/31 07:34:58;;;;;;;142.40;61.08;;;;;;;-3.93;69.26;99496.75;2261148;78;28891;-63
2021/01/31 07:38:17;;;;;;;182.10;73.17;;;;;;;-3.84;69.09;99498.47;2259682;77;31466;-73
2021/01/31 07:41:20;;;;;;;167.30;67.00;;;;;;;-3.75;69.32;99497.55;2263592;78;33114;-73
2021/01/31 07:44:30;;;;;;;144.57;57.65;;;;;;;-3.64;69.17;99495.78;2264387;75;28554;-73
2021/01/31 07:47:32;;;;;;;132.12;52.85;;;;;;;-3.56;69.16;99497.05;2265103;77;27777;-74
2021/01/31 07:50:41;;;;;;;145.82;56.08;;;;;;;-3.42;69.26;99487.37;2264445;78;30171;-70
2021/01/31 07:53:44;;;;;;;194.52;68.55;;;;;;;-3.25;69.39;99499.48;2305721;77;32204;-73
2021/01/31 07:56:46;;;;;;;286.30;101.10;;;;;;;-3.12;69.24;99494.59;2306459;77;34104;-71
2021/01/31 07:59:49;;;;;;;361.18;121.20;;;;;;;-3.00;69.23;99498.00;2305538;77;29812;-75
2021/01/31 08:02:58;;;;;;;432.60;136.80;;;;;;;-2.90;69.33;99495.75;2276487;77;28209;-75
2021/01/31 08:06:20;;;;;;;168.20;67.30;;;;;;;-2.80;69.12;99490.86;2264796;78;29543;-74
2021/01/31 08:09:32;;;;;;;138.00;58.85;;;;;;;-2.74;69.01;99496.48;2267541;77;31162;-74
2021/01/31 08:12:58;;;;;;;147.02;68.97;;;;;;;-2.65;69.03;99495.53;2264417;78;33603;-68
2021/01/31 08:16:03;;;;;;;149.12;69.47;;;;;;;-2.60;68.83;99501.62;2285593;77;28842;-76
2021/01/31 08:19:14;;;;;;;180.48;79.92;;;;;;;-2.55;68.87;99500.26;2301430;77;27751;-75
2021/01/31 08:22:34;;;;;;;181.70;79.72;;;;;;;-2.49;68.85;99497.13;2262162;78;28812;-76
2021/01/31 08:26:02;;;;;;;164.52;72.17;;;;;;;-2.37;68.78;99493.95;2264555;78;31172;-74
2021/01/31 08:29:21;;;;;;;171.70;79.67;;;;;;;-2.24;68.50;99495.59;2342764;76;37205;-74
2021/01/31 08:32:23;;;;;;;175.85;79.65;;;;;;;-2.19;68.41;99500.33;2306047;77;27631;-73
2021/01/31 08:35:46;;;;;;;174.65;80.00;;;;;;;-2.07;68.83;99502.42;2306105;77;27701;-75
2021/01/31 08:38:53;;;;;;;171.25;76.53;;;;;;;-1.92;69.00;99502.67;2306573;77;31128;-76
2021/01/31 08:42:10;;;;;;;169.97;77.05;;;;;;;-1.78;69.06;99499.44;2300287;77;34335;-76
2021/01/31 08:45:12;;;;;;;159.63;77.82;;;;;;;-1.70;68.72;99499.34;2232909;78;28538;-77
2021/01/31 08:48:26;;;;;;;163.25;78.67;;;;;;;-1.60;68.84;99498.34;2275422;77;27620;-75
2021/01/31 08:51:33;;;;;;;159.85;75.83;;;;;;;-1.45;69.04;99505.14;2300501;77;31698;-67
2021/01/31 08:54:36;;;;;;;165.77;77.40;;;;;;;-1.28;69.12;99506.23;2270219;77;31200;-74
2021/01/31 08:57:38;;;;;;;164.52;79.77;;;;;;;-1.14;68.82;99506.48;2283343;77;33186;-76
2021/01/31 09:00:40;;;;;;;164.00;78.90;;;;;;;-1.04;68.67;99515.95;2278833;77;29263;-71
2021/01/31 09:03:43;;;;;;;173.40;77.15;;;;;;;-0.93;68.46;99517.11;2303269;77;27622;-75
2021/01/31 09:06:49;;;;;;;163.22;72.75;;;;;;;-0.86;68.24;99518.77;2217384;80;28771;-75
2021/01/31 09:10:06;;;;;;;155.12;71.97;;;;;;;-0.84;67.92;99511.73;2248622;78;32080;-77
2021/01/31 09:13:17;;;;;;;170.47;80.30;;;;;;;-0.86;67.66;99515.25;2250090;78;33330;-66
2021/01/31 09:16:26;;;;;;;159.20;74.97;;;;;;;-0.85;67.89;99518.30;2215395;80;28928;-70
2021/01/31 09:19:29;;;;;;;160.37;72.08;;;;;;;-0.82;68.08;99520.89;2257628;78;28230;-67
2021/01/31 09:22:32;;;;;;;144.30;65.87;;;;;;;-0.78;67.88;99524.76;2217464;80;29003;-68
2021/01/31 09:28:51;;;;;;;152.97;70.43;;;;;;;-0.58;68.20;99509.11;2342796;76;36739;-69
2021/01/31 09:32:20;;;;;;;146.15;74.40;;;;;;;-0.54;68.26;99509.48;2305482;77;27659;-67
2021/01/31 09:35:36;;;;;;;148.07;70.90;;;;;;;-0.34;68.17;99512.22;2343036;76;27704;-69
2021/01/31 09:38:38;;;;;;;;;;;;;;;-0.31;67.77;99508.19;2268827;77;27661;-69
2021/01/31 09:41:40;;;;;;;132.52;59.33;;;;;;;-0.24;67.94;99513.78;2227513;77;28677;-74
2021/01/31 09:44:51;;;;;;;153.05;71.82;;;;;;;-0.18;68.10;99510.16;2303005;77;31133;-70
2021/01/31 09:47:53;;;;;;;136.57;61.63;;;;;;;-0.12;68.04;99506.54;2287278;77;33181;-67
2021/01/31 09:51:01;;;;;;;150.80;67.95;;;;;;;-0.12;67.75;99506.54;2261920;78;28479;-72
2021/01/31 09:54:31;;;;;;;177.90;73.95;;;;;;;-0.12;67.82;99504.79;2261898;78;27667;-65
2021/01/31 09:57:33;;;;;;;112.70;54.25;;;;;;;-0.12;67.58;99507.86;2261274;78;28787;-70
2021/01/31 10:00:35;;;;;;;107.97;51.25;;;;;;;-0.12;67.66;99507.86;2283561;77;31131;-74
2021/01/31 10:03:37;;;;;;;110.72;49.30;;;;;;;-0.13;67.76;99503.05;2302610;77;34127;-67
2021/01/31 10:06:42;;;;;;;102.00;45.45;;;;;;;-0.09;67.58;99502.53;2285207;77;28854;-69
2021/01/31 10:09:50;;;;;;;133.57;55.33;;;;;;;-0.12;67.44;99501.27;2271357;77;27646;-73
2021/01/31 10:13:22;;;;;;;92.08;43.42;;;;;;;-0.11;67.59;99500.38;2283661;77;28795;-73
2021/01/31 10:16:32;;;;;;;86.90;37.05;;;;;;;-0.10;67.63;99506.06;2207307;80;32105;-72
2021/01/31 10:19:34;;;;;;;84.83;38.42;;;;;;;-0.07;67.48;99493.70;2202288;80;33197;-73
2021/01/31 10:22:36;;;;;;;79.15;36.40;;;;;;;-0.08;67.39;99498.55;2202106;80;29384;-64
2021/01/31 10:25:42;;;;;;;72.92;31.93;;;;;;;-0.04;67.50;99500.70;2152023;80;27707;-66
2021/01/31 10:28:54;;;;;;;73.05;33.10;;;;;;;-0.01;67.54;99499.33;2176463;81;28872;-76
2021/01/31 10:32:22;;;;;;;65.17;33.05;;;;;;;0.03;67.28;99497.03;2173224;80;32281;-69
2021/01/31 10:35:36;;;;;;;55.55;25.27;;;;;;;0.02;66.96;99495.75;2177425;81;33128;-68
2021/01/31 10:38:43;;;;;;;66.97;30.80;;;;;;;-0.01;66.41;99494.06;2178811;81;29768;-61
2021/01/31 10:41:47;;;;;;;77.92;36.77;;;;;;;-0.05;66.71;99493.23;2182231;79;27753;-66
2021/01/31 10:44:49;;;;;;;84.60;41.37;;;;;;;-0.03;66.67;99494.07;2160507;81;28812;-73
2021/01/31 10:47:52;;;;;;;87.53;42.95;;;;;;;0.10;66.90;99494.70;2148424;82;32505;-69
2021/01/31 10:50:54;;;;;;;170.07;70.10;;;;;;;0.24;67.07;99499.71;2148563;82;34527;-61
2021/01/31 10:53:58;;;;;;;152.95;67.58;;;;;;;0.42;66.96;99493.17;2245679;77;29067;-72
2021/01/31 10:57:00;;;;;;;165.40;74.82;;;;;;;0.56;66.51;99503.44;2296485;77;27633;-68
2021/01/31 11:00:11;;;;;;;145.55;73.47;;;;;;;0.59;66.57;99492.80;2305916;77;28807;-63
2021/01/31 11:03:15;;;;;;;136.50;66.75;;;;;;;0.69;66.65;99496.10;2305487;77;32092;-64
2021/01/31 11:06:21;;;;;;;118.28;59.93;;;;;;;0.74;66.51;99487.66;2275241;77;33099;-72
2021/01/31 11:09:24;;;;;;;140.88;67.78;;;;;;;0.87;66.55;99491.31;2264994;78;28868;-75
2021/01/31 11:12:28;;;;;;;127.50;61.80;;;;;;;0.94;66.36;99490.72;2287476;77;27700;-72
2021/01/31 11:15:30;;;;;;;123.00;59.53;;;;;;;0.92;65.89;99486.81;2306887;77;29694;-66
2021/01/31 11:18:33;;;;;;;116.97;56.00;;;;;;;0.86;65.78;99485.63;2306122;77;31122;-60
2021/01/31 11:21:36;;;;;;;109.27;57.38;;;;;;;0.86;66.01;99481.67;2305834;77;33953;-66
2021/01/31 11:24:39;;;;;;;126.47;57.05;;;;;;;0.86;65.82;99481.67;2279677;77;29740;-72
2021/01/31 11:27:41;;;;;;;109.03;56.33;;;;;;;0.83;65.65;99481.77;2304503;77;27592;-69
2021/01/31 11:30:45;;;;;;;59.85;29.92;;;;;;;0.78;65.81;99483.63;2306852;77;28810;-66
2021/01/31 11:33:50;;;;;;;62.83;31.97;;;;;;;0.72;64.89;99478.05;2264204;77;31034;-68
2021/01/31 11:36:52;;;;;;;69.20;32.03;;;;;;;0.58;64.32;99475.25;2291021;77;33181;-64
2021/01/31 11:39:56;;;;;;;80.38;38.33;;;;;;;0.50;64.94;99485.11;2301557;77;30207;-67
2021/01/31 11:42:59;;;;;;;85.22;41.33;;;;;;;0.48;64.83;99472.88;2272348;77;27678;-69
2021/01/31 11:46:02;;;;;;;88.12;41.50;;;;;;;0.45;64.88;99465.88;2288759;77;28906;-66
2021/01/31 11:49:04;;;;;;;92.25;43.95;;;;;;;0.41;64.84;99470.83;2263843;77;31117;-73
2021/01/31 11:52:07;;;;;;;86.90;44.20;;;;;;;0.38;64.66;99468.25;2261107;78;33243;-64
2021/01/31 11:55:11;;;;;;;101.27;46.35;;;;;;;0.30;64.81;99460.52;2274238;77;28841;-71
2021/01/31 11:58:14;;;;;;;106.85;53.05;;;;;;;0.22;64.59;99450.14;2302686;77;27624;-65
2021/01/31 12:01:24;;;;;;;109.03;52.03;;;;;;;0.18;64.79;99447.58;2294557;77;29653;-71
2021/01/31 12:04:26;;;;;;;99.87;49.50;;;;;;;0.10;64.73;99449.94;2271933;77;31177;-72
2021/01/31 12:07:29;;;;;;;107.47;52.65;;;;;;;0.03;64.50;99450.95;2301569;77;32470;-72
2021/01/31 12:10:34;;;;;;;99.83;48.85;;;;;;;-0.07;64.88;99439.73;2267100;77;28943;-68
2021/01/31 12:13:37;;;;;;;112.68;55.10;;;;;;;-0.05;65.12;99439.26;2261190;78;28154;-64
2021/01/31 12:16:41;;;;;;;89.30;44.40;;;;;;;-0.08;64.96;99431.41;2260895;78;28809;-67
2021/01/31 12:19:47;;;;;;;86.30;41.00;;;;;;;-0.05;64.97;99430.50;2274293;77;31144;-67
2021/01/31 12:22:49;;;;;;;93.37;46.83;;;;;;;-0.09;64.72;99423.13;2300810;77;33118;-65
2021/01/31 12:25:52;;;;;;;96.17;46.37;;;;;;;-0.09;64.87;99415.66;2261136;78;28852;-63
2021/01/31 12:28:54;;;;;;;90.75;43.98;;;;;;;-0.11;64.62;99412.19;2261544;78;27567;-65
2021/01/31 12:31:57;;;;;;;77.45;36.23;;;;;;;-0.19;64.64;99412.34;2278878;77;28798;-70
2021/01/31 12:34:59;;;;;;;71.28;37.23;;;;;;;-0.24;64.05;99417.70;2270752;77;31175;-64
2021/01/31 12:38:05;;;;;;;60.43;28.95;;;;;;;-0.31;64.46;99421.34;2295962;77;33149;-72
2021/01/31 12:41:08;;;;;;;68.20;30.57;;;;;;;-0.29;64.72;99410.80;2295487;77;28856;-71
2021/01/31 12:44:12;;;;;;;64.27;29.42;;;;;;;-0.26;64.74;99410.28;2294369;77;27629;-64
2021/01/31 12:47:17;;;;;;;54.90;28.40;;;;;;;-0.27;64.17;99405.92;2254954;78;28795;-67
2021/01/31 12:50:23;;;;;;;62.88;29.25;;;;;;;-0.30;64.39;99411.23;2254991;78;31686;-70
2021/01/31 12:53:25;;;;;;;33.58;17.10;;;;;;;-0.31;64.05;99409.50;2254865;78;33972;-65
2021/01/31 12:56:28;;;;;;;34.60;16.05;;;;;;;-0.29;63.80;99421.33;2291636;77;29252;-62
2021/01/31 12:59:30;;;;;;;30.43;15.08;;;;;;;-0.29;63.98;99420.88;2295886;77;27763;-70
2021/01/31 13:02:37;;;;;;;;;;;;;;;-0.28;64.01;99413.86;2290880;77;28224;-75
2021/01/31 13:05:42;;;;;;;27.35;13.20;;;;;;;-0.28;63.50;99418.66;2294877;77;31184;-74
2021/01/31 13:08:44;;;;;;;27.80;13.15;;;;;;;-0.35;63.26;99419.23;2296082;77;33974;-72
2021/01/31 13:11:49;;;;;;;30.02;14.58;;;;;;;-0.38;63.24;99414.48;2296034;77;28855;-66
2021/01/31 13:14:53;;;;;;;31.93;14.28;;;;;;;-0.37;63.38;99409.64;2270830;77;27752;-67
2021/01/31 13:17:58;;;;;;;28.32;14.50;;;;;;;-0.38;63.54;99403.95;2254682;78;28827;-71
2021/01/31 13:21:02;;;;;;;27.00;13.50;;;;;;;-0.39;63.20;99414.06;2255021;78;30967;-61
2021/01/31 13:24:20;;;;;;;33.02;14.87;;;;;;;-0.44;62.95;99414.16;2268149;77;33182;-65
2021/01/31 13:27:23;;;;;;;32.05;15.70;;;;;;;-0.44;63.11;99414.59;2295895;77;29801;-73
2021/01/31 13:30:26;;;;;;;24.27;13.28;;;;;;;-0.44;63.13;99411.52;2270057;77;27651;-66
2021/01/31 13:33:29;;;;;;;32.40;15.00;;;;;;;-0.52;62.36;99415.62;2283306;77;28787;-74
2021/01/31 13:36:33;;;;;;;30.20;13.03;;;;;;;-0.59;62.69;99412.66;2230703;78;31695;-74
2021/01/31 13:39:36;;;;;;;27.60;13.30;;;;;;;-0.67;62.30;99412.80;2272427;77;33092;-72
2021/01/31 13:42:42;;;;;;;19.62;10.18;;;;;;;-0.72;62.55;99415.11;2232176;78;28809;-75
2021/01/31 13:45:45;;;;;;;41.75;19.67;;;;;;;-0.73;62.84;99412.05;2279558;77;27658;-66
2021/01/31 13:48:49;;;;;;;27.32;13.18;;;;;;;-0.73;62.74;99402.84;2209356;80;30061;-61
2021/01/31 13:51:51;;;;;;;30.25;13.28;;;;;;;-0.73;62.46;99410.73;2178974;80;32367;-76
2021/01/31 13:54:53;;;;;;;29.65;14.55;;;;;;;-0.78;62.53;99409.52;2178148;81;34169;-63
2021/01/31 13:57:56;;;;;;;30.35;15.05;;;;;;;-0.80;62.86;99417.41;2188938;80;29362;-66
2021/01/31 14:00:58;;;;;;;34.70;15.85;;;;;;;-0.83;62.83;99412.23;2214322;80;27598;-67
2021/01/31 14:04:01;;;;;;;33.35;13.62;;;;;;;-0.84;62.84;99408.29;2178217;81;28820;-75
2021/01/31 14:07:05;;;;;;;44.30;20.65;;;;;;;-0.82;63.07;99420.51;2181623;80;31132;-68
2021/01/31 14:10:11;;;;;;;46.37;23.98;;;;;;;-0.82;63.08;99419.19;2197778;80;35358;-76
2021/01/31 14:13:13;;;;;;;29.48;14.18;;;;;;;-0.82;62.97;99420.51;2204590;80;28758;-75
2021/01/31 14:16:15;;;;;;;44.27;19.50;;;;;;;-0.83;63.05;99416.17;2213678;80;28235;-76
2021/01/31 14:19:22;;;;;;;45.98;22.32;;;;;;;-0.83;62.99;99416.17;2190901;80;30906;-75
2021/01/31 14:22:24;;;;;;;37.67;19.15;;;;;;;-0.83;62.89;99420.55;2176093;81;32184;-76